createdAt,value
2022-09-24T00:01:45.435Z,100927.09
2022-09-24T00:04:14.160Z,100922.75
2022-09-24T00:06:44.556Z,100928.13
2022-09-24T00:09:13.511Z,100921.16
2022-09-24T00:11:43.020Z,100931.97
2022-09-24T00:14:11.144Z,100925.69
2022-09-24T00:16:41.462Z,100923.06
2022-09-24T00:19:12.687Z,100925.81
2022-09-24T00:21:41.603Z,100919.69
2022-09-24T00:24:11.780Z,100919.63
2022-09-24T00:26:50.556Z,100927.63
2022-09-24T00:29:20.010Z,100914.19
2022-09-24T00:31:48.649Z,100916.81
2022-09-24T00:34:18.170Z,100919.22
2022-09-24T00:36:47.055Z,100917.31
2022-09-24T00:39:15.586Z,100915.44
2022-09-24T00:41:48.899Z,100913.59
2022-09-24T00:44:54.065Z,100898.34
2022-09-24T00:47:32.114Z,100907.09
2022-09-24T00:50:08.581Z,100902.59
2022-09-24T00:52:40.653Z,100903.50
2022-09-24T00:55:10.308Z,100899.97
2022-09-24T00:57:39.895Z,100894.78
2022-09-24T01:00:09.258Z,100889.69
2022-09-24T01:02:40.198Z,100887.16
2022-09-24T01:05:11.229Z,100892.56
2022-09-24T01:07:39.153Z,100892.66
2022-09-24T01:10:07.863Z,100894.50
2022-09-24T01:12:47.628Z,100886.81
2022-09-24T01:15:25.734Z,100893.97
2022-09-24T01:18:01.658Z,100887.81
2022-09-24T01:20:54.397Z,100895.94
2022-09-24T01:23:57.223Z,100887.06
2022-09-24T01:26:42.657Z,100888.63
2022-09-24T01:29:32.560Z,100890.41
2022-09-24T01:32:05.970Z,100889.47
2022-09-24T01:34:41.249Z,100884.09
2022-09-24T01:37:10.095Z,100880.66
2022-09-24T01:39:39.202Z,100884.13
2022-09-24T01:42:09.406Z,100877.19
2022-09-24T01:44:44.190Z,100885.09
2022-09-24T01:47:18.447Z,100877.03
2022-09-24T01:49:47.006Z,100877.09
2022-09-24T01:52:21.093Z,100878.00
2022-09-24T01:54:52.298Z,100876.22
2022-09-24T01:57:24.784Z,100875.34
2022-09-24T02:00:00.436Z,100867.38
2022-09-24T02:02:33.993Z,100867.38
2022-09-24T02:05:08.777Z,100869.19
2022-09-24T02:07:40.706Z,100864.69
2022-09-24T02:10:15.447Z,100860.25
2022-09-24T02:12:46.890Z,100861.97
2022-09-24T02:15:20.717Z,100866.47
2022-09-24T02:17:55.878Z,100864.53
2022-09-24T02:20:27.041Z,100863.50
2022-09-24T02:22:58.395Z,100859.91
2022-09-24T02:25:32.314Z,100855.41
2022-09-24T02:28:00.508Z,100862.50
2022-09-24T02:30:32.313Z,100859.03
2022-09-24T02:33:01.032Z,100869.81
2022-09-24T02:35:28.090Z,100859.41
2022-09-24T02:37:56.121Z,100858.75
2022-09-24T02:40:24.139Z,100862.41
2022-09-24T02:42:52.201Z,100866.94
2022-09-24T02:45:20.142Z,100859.94
2022-09-24T02:47:49.496Z,100867.09
2022-09-24T02:50:17.583Z,100861.75
2022-09-24T02:52:45.546Z,100862.66
2022-09-24T02:55:13.507Z,100868.91
2022-09-24T02:57:41.469Z,100865.34
2022-09-24T03:00:10.949Z,100859.22
2022-09-24T03:02:39.069Z,100859.22
2022-09-24T03:05:09.405Z,100856.47
2022-09-24T03:07:37.389Z,100855.53
2022-09-24T03:10:06.118Z,100857.25
2022-09-24T03:12:34.485Z,100856.25
2022-09-24T03:15:02.458Z,100847.34
2022-09-24T03:17:30.897Z,100849.94
2022-09-24T03:19:58.886Z,100849.91
2022-09-24T03:22:28.192Z,100852.63
2022-09-24T03:24:56.237Z,100849.00
2022-09-24T03:27:24.246Z,100847.19
2022-09-24T03:30:09.552Z,100857.00
2022-09-24T03:32:39.195Z,100855.13
2022-09-24T03:35:08.391Z,100848.94
2022-09-24T03:37:38.662Z,100844.50
2022-09-24T03:40:07.992Z,100849.75
2022-09-24T03:42:36.442Z,100846.31
2022-09-24T03:45:05.230Z,100842.97
2022-09-24T03:47:33.608Z,100842.19
2022-09-24T03:50:02.540Z,100840.50
2022-09-24T03:52:30.473Z,100839.56
2022-09-24T03:54:59.790Z,100844.91
2022-09-24T03:57:27.804Z,100838.69
2022-09-24T03:59:55.786Z,100842.25
2022-09-24T04:02:23.859Z,100843.00
2022-09-24T04:04:52.161Z,100834.09
2022-09-24T04:07:20.093Z,100841.94
2022-09-24T04:09:48.210Z,100845.41
2022-09-24T04:12:17.617Z,100834.63
2022-09-24T04:14:45.629Z,100832.66
2022-09-24T04:17:14.426Z,100834.31
2022-09-24T04:19:42.370Z,100827.94
2022-09-24T04:22:10.347Z,100832.28
2022-09-24T04:24:38.319Z,100828.66
2022-09-24T04:27:06.419Z,100827.69
2022-09-24T04:29:35.759Z,100831.31
2022-09-24T04:32:03.937Z,100830.47
2022-09-24T04:34:32.009Z,100821.59
2022-09-24T04:37:00.027Z,100822.47
2022-09-24T04:39:28.109Z,100829.63
2022-09-24T04:41:56.114Z,100826.94
2022-09-24T04:44:24.390Z,100810.31
2022-09-24T04:46:55.782Z,100820.75
2022-09-24T04:49:24.202Z,100821.56
2022-09-24T04:51:52.142Z,100826.91
2022-09-24T04:54:20.651Z,100826.91
2022-09-24T04:56:48.901Z,100825.09
2022-09-24T04:59:16.961Z,100823.31
2022-09-24T05:01:46.317Z,100820.53
2022-09-24T05:04:15.957Z,100827.69
2022-09-24T05:06:43.948Z,100818.66
2022-09-24T05:09:12.882Z,100824.91
2022-09-24T05:11:40.914Z,100824.00
2022-09-24T05:14:08.894Z,100824.16
2022-09-24T05:16:36.948Z,100822.41
2022-09-24T05:19:05.515Z,100831.38
2022-09-24T05:21:34.888Z,100831.31
2022-09-24T05:24:03.117Z,100823.44
2022-09-24T05:26:48.841Z,100827.03
2022-09-24T05:29:16.806Z,100826.19
2022-09-24T05:31:45.120Z,100821.72
2022-09-24T05:34:14.240Z,100825.19
2022-09-24T05:36:43.974Z,100822.66
2022-09-24T05:39:12.934Z,100824.34
2022-09-24T05:41:41.458Z,100824.28
2022-09-24T05:44:11.054Z,100826.09
2022-09-24T05:46:39.120Z,100823.31
2022-09-24T05:49:07.753Z,100817.13
2022-09-24T05:51:35.858Z,100821.44
2022-09-24T05:54:05.402Z,100827.69
2022-09-24T05:56:33.409Z,100829.34
2022-09-24T05:59:01.997Z,100824.75
2022-09-24T06:01:31.017Z,100827.13
2022-09-24T06:04:00.874Z,100828.78
2022-09-24T06:06:31.515Z,100831.47
2022-09-24T06:08:59.517Z,100839.19
2022-09-24T06:11:36.366Z,100831.25
2022-09-24T06:14:09.020Z,100837.31
2022-09-24T06:16:37.414Z,100821.56
2022-09-24T06:19:05.565Z,100835.38
2022-09-24T06:21:33.584Z,100837.19
2022-09-24T06:24:01.822Z,100840.00
2022-09-24T06:26:31.109Z,100839.94
2022-09-24T06:29:04.459Z,100838.13
2022-09-24T06:31:34.663Z,100840.00
2022-09-24T06:34:03.698Z,100834.63
2022-09-24T06:36:31.666Z,100844.34
2022-09-24T06:38:59.648Z,100834.53
2022-09-24T06:41:27.646Z,100846.91
2022-09-24T06:43:57.202Z,100842.31
2022-09-24T06:46:25.885Z,100841.47
2022-09-24T06:48:55.144Z,100848.50
2022-09-24T06:51:23.395Z,100847.63
2022-09-24T06:53:52.270Z,100848.50
2022-09-24T06:56:20.839Z,100854.72
2022-09-24T06:58:48.867Z,100854.78
2022-09-24T07:01:18.227Z,100852.91
2022-09-24T07:03:46.193Z,100852.88
2022-09-24T07:06:14.158Z,100851.88
2022-09-24T07:08:42.345Z,100855.56
2022-09-24T07:11:10.324Z,100858.22
2022-09-24T07:13:38.279Z,100857.34
2022-09-24T07:16:06.601Z,100849.25
2022-09-24T07:18:37.540Z,100859.91
2022-09-24T07:21:05.661Z,100855.44
2022-09-24T07:23:33.652Z,100846.59
2022-09-24T07:26:01.618Z,100856.31
2022-09-24T07:28:29.574Z,100862.56
2022-09-24T07:30:59.606Z,100862.53
2022-09-24T07:33:27.979Z,100869.72
2022-09-24T07:35:57.340Z,100870.59
2022-09-24T07:38:25.329Z,100875.88
2022-09-24T07:40:58.129Z,100872.41
2022-09-24T07:43:30.465Z,100875.94
2022-09-24T07:45:58.938Z,100874.16
2022-09-24T07:48:26.886Z,100875.94
2022-09-24T07:50:55.883Z,100882.13
2022-09-24T07:53:25.271Z,100877.59
2022-09-24T07:55:53.593Z,100873.03
2022-09-24T07:58:21.912Z,100878.38
2022-09-24T08:00:49.886Z,100878.38
2022-09-24T08:03:18.014Z,100881.00
2022-09-24T08:05:46.691Z,100879.22
2022-09-24T08:08:15.217Z,100882.72
2022-09-24T08:10:45.009Z,100882.81
2022-09-24T08:13:13.206Z,100881.00
2022-09-24T08:15:41.748Z,100885.38
2022-09-24T08:18:09.854Z,100883.59
2022-09-24T08:20:39.218Z,100888.06
2022-09-24T08:23:09.934Z,100883.66
2022-09-24T08:25:38.020Z,100875.69
2022-09-24T08:28:09.071Z,100891.63
2022-09-24T08:30:37.273Z,100890.66
2022-09-24T08:33:06.746Z,100886.16
2022-09-24T08:35:35.421Z,100888.78
2022-09-24T08:38:03.555Z,100880.75
2022-09-24T08:40:34.572Z,100889.59
2022-09-24T08:43:14.324Z,100882.53
2022-09-24T08:46:03.953Z,100878.81
2022-09-24T08:48:37.254Z,100892.06
2022-09-24T08:51:09.467Z,100885.69
2022-09-24T08:53:47.906Z,100890.94
2022-09-24T08:56:22.113Z,100882.78
2022-09-24T08:58:56.263Z,100886.16
2022-09-24T09:01:36.965Z,100885.34
2022-09-24T09:04:19.744Z,100893.38
2022-09-24T09:07:01.623Z,100902.16
2022-09-24T09:09:42.391Z,100897.69
2022-09-24T09:12:16.382Z,100900.19
2022-09-24T09:14:51.153Z,100903.53
2022-09-24T09:17:33.387Z,100904.28
2022-09-24T09:20:05.597Z,100905.31
2022-09-24T09:22:38.682Z,100903.25
2022-09-24T09:25:18.421Z,100908.59
2022-09-24T09:27:47.765Z,100906.69
2022-09-24T09:30:19.826Z,100904.88
2022-09-24T09:33:12.413Z,100904.69
2022-09-24T09:35:47.431Z,100897.50
2022-09-24T09:38:23.511Z,100900.22
2022-09-24T09:41:01.828Z,100905.41
2022-09-24T09:43:30.354Z,100901.63
2022-09-24T09:46:12.687Z,100902.31
2022-09-24T09:48:46.256Z,100902.25
2022-09-24T09:51:22.750Z,100893.97
2022-09-24T09:53:59.137Z,100901.03
2022-09-24T09:56:30.327Z,100906.19
2022-09-24T09:59:08.537Z,100908.19
2022-09-24T10:01:40.573Z,100902.59
2022-09-24T10:04:28.879Z,100889.16
2022-09-24T10:07:05.278Z,100901.28
2022-09-24T10:09:33.709Z,100899.25
2022-09-24T10:12:09.710Z,100887.66
2022-09-24T10:14:37.661Z,100897.09
2022-09-24T10:17:07.354Z,100899.56
2022-09-24T10:19:39.035Z,100900.69
2022-09-24T10:22:15.137Z,100901.88
2022-09-24T10:24:44.572Z,100893.16
2022-09-24T10:27:13.779Z,100902.91
2022-09-24T10:29:59.966Z,100899.31
2022-09-24T10:32:30.558Z,100908.28
2022-09-24T10:35:01.059Z,100888.66
2022-09-24T10:40:00.599Z,100890.50
2022-09-24T10:42:30.331Z,100888.72
2022-09-24T10:45:02.282Z,100899.50
2022-09-24T10:47:40.954Z,100897.69
2022-09-24T10:50:26.069Z,100900.28
2022-09-24T10:52:55.707Z,100895.84
2022-09-24T10:55:48.230Z,100901.28
2022-09-24T10:58:27.512Z,100895.00
2022-09-24T11:01:08.426Z,100895.84
2022-09-24T11:04:24.022Z,100891.72
2022-09-24T11:07:09.528Z,100894.78
2022-09-24T11:09:47.140Z,100901.66
2022-09-24T11:12:22.977Z,100896.72
2022-09-24T11:15:11.840Z,100897.50
2022-09-24T11:17:45.009Z,100900.00
2022-09-24T11:20:23.620Z,100897.50
2022-09-24T11:23:27.370Z,100889.41
2022-09-24T11:26:04.021Z,100890.16
2022-09-24T11:29:03.139Z,100890.03
2022-09-24T11:31:39.827Z,100890.75
2022-09-24T11:34:21.753Z,100893.13
2022-09-24T11:37:11.463Z,100894.44
2022-09-24T11:39:56.213Z,100894.56
2022-09-24T11:42:29.036Z,100898.75
2022-09-24T11:45:25.099Z,100898.66
2022-09-24T11:48:25.555Z,100897.69
2022-09-24T11:51:03.568Z,100896.72
2022-09-24T11:53:38.268Z,100886.84
2022-09-24T11:56:14.317Z,100898.53
2022-09-24T11:58:46.143Z,100905.81
2022-09-24T12:01:18.117Z,100895.28
2022-09-24T12:03:53.947Z,100899.44
2022-09-24T12:06:26.283Z,100899.63
2022-09-24T12:09:01.579Z,100895.25
2022-09-24T12:11:36.733Z,100896.47
2022-09-24T12:14:13.466Z,100892.09
2022-09-24T12:16:44.423Z,100890.66
2022-09-24T12:19:21.233Z,100899.81
2022-09-24T12:21:52.831Z,100890.78
2022-09-24T12:24:29.143Z,100897.91
2022-09-24T12:27:03.721Z,100899.69
2022-09-24T12:29:57.285Z,100899.03
2022-09-24T12:32:50.379Z,100897.16
2022-09-24T12:35:31.326Z,100892.84
2022-09-24T12:38:05.170Z,100886.69
2022-09-24T12:40:58.258Z,100888.38
2022-09-24T12:43:34.260Z,100880.34
2022-09-24T12:46:05.897Z,100887.47
2022-09-24T12:48:38.420Z,100886.56
2022-09-24T12:51:10.242Z,100885.00
2022-09-24T12:53:42.181Z,100880.56
2022-09-24T12:56:12.132Z,100885.00
2022-09-24T12:58:43.596Z,100884.22
2022-09-24T13:01:26.920Z,100885.00
2022-09-24T13:04:05.727Z,100884.94
2022-09-24T13:06:36.994Z,100868.22
2022-09-24T13:09:25.962Z,100885.78
2022-09-24T13:12:03.471Z,100887.47
2022-09-24T13:14:35.610Z,100882.81
2022-09-24T13:17:07.770Z,100877.97
2022-09-24T13:19:40.809Z,100879.25
2022-09-24T13:22:22.919Z,100878.19
2022-09-24T13:24:53.086Z,100877.03
2022-09-24T13:27:24.618Z,100874.31
2022-09-24T13:30:06.962Z,100885.34
2022-09-24T13:32:39.818Z,100878.34
2022-09-24T13:35:19.514Z,100877.38
2022-09-24T13:37:55.370Z,100878.75
2022-09-24T13:40:28.297Z,100881.16
2022-09-24T13:43:03.919Z,100881.09
2022-09-24T13:45:37.047Z,100879.28
2022-09-24T13:48:06.981Z,100884.63
2022-09-24T13:50:38.193Z,100879.63
2022-09-24T13:53:13.657Z,100880.34
2022-09-24T13:55:46.672Z,100874.97
2022-09-24T13:58:27.829Z,100866.13
2022-09-24T14:00:59.764Z,100874.72
2022-09-24T14:03:32.122Z,100881.72
2022-09-24T14:06:01.334Z,100877.19
2022-09-24T14:08:30.727Z,100881.88
2022-09-24T14:11:14.391Z,100885.59
2022-09-24T14:13:45.969Z,100878.47
2022-09-24T14:16:19.094Z,100876.94
2022-09-24T14:18:47.922Z,100874.38
2022-09-24T14:21:22.254Z,100870.75
2022-09-24T14:23:54.921Z,100873.38
2022-09-24T14:26:28.873Z,100859.44
2022-09-24T14:28:59.254Z,100863.72
2022-09-24T14:31:29.213Z,100853.25
2022-09-24T14:33:58.166Z,100859.09
2022-09-24T14:36:29.136Z,100859.28
2022-09-24T14:39:02.244Z,100872.63
2022-09-24T14:41:32.477Z,100867.34
2022-09-24T14:44:04.485Z,100864.59
2022-09-24T14:46:36.458Z,100867.88
2022-09-24T14:49:17.909Z,100864.66
2022-09-24T14:51:52.790Z,100862.19
2022-09-24T14:54:28.401Z,100860.56
2022-09-24T14:56:56.878Z,100861.19
2022-09-24T14:59:30.540Z,100867.41
2022-09-24T15:02:17.227Z,100863.78
2022-09-24T15:04:48.566Z,100865.16
2022-09-24T15:07:22.907Z,100858.81
2022-09-24T15:09:52.922Z,100864.44
2022-09-24T15:12:25.112Z,100851.81
2022-09-24T15:14:57.810Z,100857.19
2022-09-24T15:17:32.955Z,100853.72
2022-09-24T15:20:01.546Z,100849.56
2022-09-24T15:22:31.097Z,100854.97
2022-09-24T15:25:01.942Z,100863.16
2022-09-24T15:27:32.267Z,100862.34
2022-09-24T15:30:02.088Z,100859.59
2022-09-24T15:32:35.004Z,100855.25
2022-09-24T15:35:08.399Z,100849.97
2022-09-24T15:37:40.128Z,100855.34
2022-09-24T15:40:10.602Z,100854.50
2022-09-24T15:42:38.609Z,100849.31
2022-09-24T15:45:16.342Z,100847.56
2022-09-24T15:47:45.921Z,100852.00
2022-09-24T15:50:14.087Z,100856.44
2022-09-24T15:52:47.664Z,100853.88
2022-09-24T15:55:19.021Z,100857.31
2022-09-24T15:57:47.293Z,100855.56
2022-09-24T16:00:18.300Z,100860.00
2022-09-24T16:02:52.206Z,100861.75
2022-09-24T16:05:20.754Z,100864.50
2022-09-24T16:07:49.299Z,100857.38
2022-09-24T16:10:17.444Z,100859.91
2022-09-24T16:12:45.453Z,100860.06
2022-09-24T16:15:14.661Z,100865.47
2022-09-24T16:17:42.697Z,100863.66
2022-09-24T16:20:12.139Z,100874.44
2022-09-24T16:22:40.086Z,100866.53
2022-09-24T16:25:08.884Z,100871.97
2022-09-24T16:27:37.662Z,100865.03
2022-09-24T16:30:07.303Z,100867.66
2022-09-24T16:32:35.286Z,100874.72
2022-09-24T16:35:03.238Z,100873.03
2022-09-24T16:37:42.135Z,100871.19
2022-09-24T16:40:12.169Z,100866.72
2022-09-24T16:42:40.206Z,100865.91
2022-09-24T16:45:10.302Z,100868.72
2022-09-24T16:47:38.354Z,100860.88
2022-09-24T16:50:07.636Z,100867.09
2022-09-24T16:52:37.032Z,100869.97
2022-09-24T16:55:05.725Z,100865.66
2022-09-24T16:57:36.477Z,100865.00
2022-09-24T17:00:05.616Z,100867.81
2022-09-24T17:02:33.618Z,100867.81
2022-09-24T17:05:01.935Z,100871.53
2022-09-24T17:07:30.941Z,100872.59
2022-09-24T17:10:16.058Z,100870.94
2022-09-24T17:12:46.218Z,100869.41
2022-09-24T17:15:15.149Z,100866.81
2022-09-24T17:17:49.348Z,100863.41
2022-09-24T17:20:18.081Z,100870.66
2022-09-24T17:22:48.220Z,100865.47
2022-09-24T17:25:19.233Z,100868.16
2022-09-24T17:27:47.209Z,100868.34
2022-09-24T17:30:15.983Z,100875.53
2022-09-24T17:32:44.263Z,100875.47
2022-09-24T17:35:13.389Z,100873.78
2022-09-24T17:37:41.394Z,100876.53
2022-09-24T17:40:11.055Z,100868.50
2022-09-24T17:42:45.853Z,100868.38
2022-09-24T17:45:13.920Z,100872.81
2022-09-24T17:48:01.116Z,100868.28
2022-09-24T17:50:29.909Z,100879.91
2022-09-24T17:52:58.712Z,100881.72
2022-09-24T17:55:27.173Z,100878.16
2022-09-24T17:57:56.490Z,100874.63
2022-09-24T18:00:24.466Z,100880.03
2022-09-24T18:02:55.280Z,100877.34
2022-09-24T18:05:23.390Z,100873.91
2022-09-24T18:07:51.432Z,100874.28
2022-09-24T18:10:19.400Z,100870.81
2022-09-24T18:12:47.398Z,100886.13
2022-09-24T18:15:16.782Z,100887.00
2022-09-24T18:17:44.762Z,100888.81
2022-09-24T18:20:12.926Z,100887.94
2022-09-24T18:22:40.904Z,100898.66
2022-09-24T18:25:10.223Z,100890.66
2022-09-24T18:27:38.537Z,100895.97
2022-09-24T18:30:10.981Z,100898.59
2022-09-24T18:32:40.523Z,100903.91
2022-09-24T18:35:09.896Z,100904.69
2022-09-24T18:37:38.018Z,100904.69
2022-09-24T18:40:07.192Z,100896.72
2022-09-24T18:42:35.220Z,100905.75
2022-09-24T18:45:03.647Z,100910.47
2022-09-24T18:47:31.615Z,100906.16
2022-09-24T18:50:01.916Z,100909.91
2022-09-24T18:52:31.054Z,100904.56
2022-09-24T18:54:59.169Z,100905.38
2022-09-24T18:57:27.110Z,100909.75
2022-09-24T18:59:55.092Z,100903.53
2022-09-24T19:02:26.357Z,100913.19
2022-09-24T19:04:54.707Z,100908.78
2022-09-24T19:07:24.013Z,100904.28
2022-09-24T19:09:52.897Z,100914.13
2022-09-24T19:12:21.368Z,100910.53
2022-09-24T19:14:49.782Z,100904.28
2022-09-24T19:17:17.754Z,100905.16
2022-09-24T19:19:51.539Z,100904.28
2022-09-24T19:22:20.385Z,100911.38
2022-09-24T19:24:49.767Z,100907.78
2022-09-24T19:27:17.712Z,100913.22
2022-09-24T19:29:45.649Z,100908.81
2022-09-24T19:32:14.385Z,100914.97
2022-09-24T19:34:42.363Z,100913.22
2022-09-24T19:37:10.309Z,100914.97
2022-09-24T19:39:38.345Z,100912.25
2022-09-24T19:42:07.716Z,100910.53
2022-09-24T19:44:36.464Z,100910.41
2022-09-24T19:47:04.966Z,100910.41
2022-09-24T19:49:32.891Z,100903.28
2022-09-24T19:52:01.065Z,100914.88
2022-09-24T19:54:29.002Z,100901.59
2022-09-24T19:56:57.007Z,100909.50
2022-09-24T19:59:26.381Z,100910.41
2022-09-24T20:01:54.897Z,100915.75
2022-09-24T20:04:24.073Z,100899.91
2022-09-24T20:06:54.143Z,100907.72
2022-09-24T20:09:22.111Z,100906.72
2022-09-24T20:11:50.480Z,100910.28
2022-09-24T20:14:20.638Z,100906.69
2022-09-24T20:16:49.949Z,100904.00
2022-09-24T20:19:20.212Z,100905.84
2022-09-24T20:21:48.134Z,100898.66
2022-09-24T20:24:16.091Z,100904.03
2022-09-24T20:27:01.815Z,100913.88
2022-09-24T20:29:29.788Z,100903.19
2022-09-24T20:31:59.102Z,100902.38
2022-09-24T20:34:28.682Z,100902.25
2022-09-24T20:36:59.734Z,100903.19
2022-09-24T20:39:30.241Z,100912.03
2022-09-24T20:42:01.634Z,100911.28
2022-09-24T20:44:30.468Z,100911.16
2022-09-24T20:46:59.832Z,100915.63
2022-09-24T20:49:29.729Z,100908.47
2022-09-24T20:51:58.193Z,100914.59
2022-09-24T20:54:28.205Z,100902.44
2022-09-24T20:56:56.240Z,100908.41
2022-09-24T20:59:25.541Z,100908.53
2022-09-24T21:01:53.980Z,100912.97
2022-09-24T21:04:23.963Z,100907.50
2022-09-24T21:06:51.986Z,100907.56
2022-09-24T21:09:20.062Z,100908.53
2022-09-24T21:11:50.131Z,100917.47
2022-09-24T21:14:18.523Z,100911.31
2022-09-24T21:16:46.691Z,100908.66
2022-09-24T21:19:15.838Z,100902.38
2022-09-24T21:21:45.369Z,100909.44
2022-09-24T21:24:15.597Z,100904.09
2022-09-24T21:26:45.113Z,100906.78
2022-09-24T21:29:16.280Z,100905.06
2022-09-24T21:31:46.225Z,100902.50
2022-09-24T21:34:15.655Z,100909.56
2022-09-24T21:36:46.461Z,100903.34
2022-09-24T21:39:17.007Z,100903.28
2022-09-24T21:41:49.835Z,100901.47
2022-09-24T21:44:19.209Z,100907.72
2022-09-24T21:46:48.881Z,100907.72
2022-09-24T21:49:17.324Z,100903.28
2022-09-24T21:51:47.247Z,100911.38
2022-09-24T21:54:17.290Z,100913.13
2022-09-24T21:56:45.632Z,100906.84
2022-09-24T21:59:31.832Z,100903.53
2022-09-24T22:02:00.155Z,100915.81
2022-09-24T22:04:28.745Z,100904.41
2022-09-24T22:06:58.727Z,100907.72
2022-09-24T22:09:26.826Z,100916.56
2022-09-24T22:11:55.776Z,100914.06
2022-09-24T22:14:23.858Z,100911.44
2022-09-24T22:16:51.921Z,100911.50
2022-09-24T22:19:20.362Z,100907.94
2022-09-24T22:21:48.361Z,100904.44
2022-09-24T22:24:17.695Z,100907.13
2022-09-24T22:26:46.077Z,100904.41
2022-09-24T22:29:14.227Z,100904.44
2022-09-24T22:31:42.186Z,100886.94
2022-09-24T22:34:28.479Z,100887.78
2022-09-24T22:36:56.504Z,100896.53
2022-09-24T22:39:26.052Z,100900.03
2022-09-24T22:41:54.145Z,100892.09
2022-09-24T22:44:22.132Z,100895.75
2022-09-24T22:46:50.098Z,100892.94
2022-09-24T22:49:19.674Z,100895.63
2022-09-24T22:51:47.689Z,100900.03
2022-09-24T22:54:16.462Z,100890.34
2022-09-24T22:56:46.038Z,100897.47
2022-09-24T22:59:14.028Z,100895.63
2022-09-24T23:01:43.859Z,100891.13
2022-09-24T23:04:13.292Z,100888.34
2022-09-24T23:06:42.019Z,100888.44
2022-09-24T23:09:11.314Z,100887.53
2022-09-24T23:11:39.600Z,100888.41
2022-09-24T23:14:13.057Z,100890.16
2022-09-24T23:16:42.633Z,100888.41
2022-09-24T23:19:14.098Z,100882.25
2022-09-24T23:21:42.453Z,100886.75
2022-09-24T23:24:15.097Z,100891.13
2022-09-24T23:26:43.235Z,100891.06
2022-09-24T23:29:14.075Z,100892.81
2022-09-24T23:31:42.076Z,100886.56
2022-09-24T23:34:12.343Z,100886.53
2022-09-24T23:36:40.324Z,100890.03
2022-09-24T23:39:08.266Z,100884.63
2022-09-24T23:41:36.275Z,100889.97
2022-09-24T23:44:04.494Z,100884.69
2022-09-24T23:46:34.608Z,100888.28
2022-09-24T23:49:02.802Z,100886.44
2022-09-24T23:51:30.947Z,100887.34
2022-09-24T23:53:58.913Z,100882.00
2022-09-24T23:56:28.347Z,100877.56
2022-09-24T23:58:56.591Z,100884.78
